SARL/AOL METAR and TAF weather

Enter ICAO airport designator
Station Type Date Time Source
SARL METAR 2021/02/27 09:00 UTC NOAA

SARL 270900Z 14008KT CAVOK 21/18 Q1015


Station Type Date Time Source
SARL Decoded METAR 2021/02/27 09:00 UTC NOAA

Paso De Los Libres Aerodrome, Argentina (SARL) 29-41S 057-09W 70M
Feb 27, 2021 - 04:00 AM EST / 2021.02.27 0900 UTC
Wind: from the SE (140 degrees) at 9 MPH (8 KT):0
Visibility: greater than 7 mile(s):0
Temperature: 69 F (21 C)
Dew Point: 64 F (18 C)
Relative Humidity: 82%
Pressure (altimeter): 29.97 in. Hg (1015 hPa)
ob: SARL 270900Z 14008KT CAVOK 21/18 Q1015
cycle: 9

Station Type Date Time Source
SARL TAF UTC NOAA

Error!

Example: see airport list